Time,TemperatureF,DewpointF,PressureIn,WindDirection,WindDirectionDegrees,WindSpeedMPH,WindSpeedGustMPH,Humidity,HourlyPrecipIn,Conditions,Clouds,dailyrainin,SoftwareType,DateUTC
2015-05-30 00:03:00,58.7,57.0,30.23,South,174,0.0,1.0,94,0.00,,,0.00,VWS V15.00,2015-05-30 04:03:00,
2015-05-30 00:08:00,58.8,57.1,30.23,South,174,0.0,1.0,94,0.00,,,0.00,VWS V15.00,2015-05-30 04:08:00,
2015-05-30 00:13:00,58.9,57.2,30.23,South,174,0.0,1.0,94,0.00,,,0.00,VWS V15.00,2015-05-30 04:13:00,
2015-05-30 00:18:00,58.9,57.2,30.23,South,174,0.0,1.0,94,0.00,,,0.00,VWS V15.00,2015-05-30 04:18:00,
2015-05-30 00:23:00,59.0,57.3,30.23,South,174,0.0,1.0,94,0.00,,,0.00,VWS V15.00,2015-05-30 04:23:00,
2015-05-30 00:28:00,59.1,57.4,30.23,South,174,0.0,1.0,94,0.00,,,0.00,VWS V15.00,2015-05-30 04:28:00,
2015-05-30 00:33:00,59.1,57.4,30.23,South,174,0.0,0.0,94,0.00,,,0.00,VWS V15.00,2015-05-30 04:33:00,
2015-05-30 00:38:00,59.3,57.9,30.22,South,174,0.0,0.0,95,0.00,,,0.00,VWS V15.00,2015-05-30 04:38:00,
2015-05-30 00:43:00,59.3,57.9,30.22,South,174,0.0,0.0,95,0.00,,,0.00,VWS V15.00,2015-05-30 04:43:00,
2015-05-30 00:48:00,59.4,58.0,30.22,South,174,0.0,0.0,95,0.00,,,0.00,VWS V15.00,2015-05-30 04:48:00,
2015-05-30 00:53:00,59.5,58.1,30.22,South,174,0.0,0.0,95,0.00,,,0.00,VWS V15.00,2015-05-30 04:53:00,
2015-05-30 00:58:00,59.5,58.1,30.21,South,174,2.0,2.0,95,0.00,,,0.00,VWS V15.00,2015-05-30 04:58:00,
2015-05-30 01:03:00,59.6,58.2,30.22,South,174,1.0,1.0,95,0.00,,,0.00,VWS V15.00,2015-05-30 05:03:00,
2015-05-30 01:08:00,59.8,58.4,30.22,South,174,0.0,2.0,95,0.00,,,0.00,VWS V15.00,2015-05-30 05:08:00,
2015-05-30 01:13:00,59.8,58.4,30.22,West,269,0.0,2.0,95,0.00,,,0.00,VWS V15.00,2015-05-30 05:13:00,
2015-05-30 01:18:00,59.9,58.5,30.22,SW,217,3.0,4.0,95,0.00,,,0.00,VWS V15.00,2015-05-30 05:18:00,
2015-05-30 01:23:00,59.9,58.5,30.22,SW,227,0.0,4.0,95,0.00,,,0.00,VWS V15.00,2015-05-30 05:23:00,
2015-05-30 01:28:00,59.9,58.5,30.22,SW,229,1.0,4.0,95,0.00,,,0.00,VWS V15.00,2015-05-30 05:28:00,
2015-05-30 01:33:00,59.9,58.5,30.22,SW,229,0.0,2.0,95,0.00,,,0.00,VWS V15.00,2015-05-30 05:33:00,
2015-05-30 01:38:00,59.9,58.5,30.22,SW,229,0.0,2.0,95,0.00,,,0.00,VWS V15.00,2015-05-30 05:38:00,
2015-05-30 01:43:00,60.0,58.9,30.22,SW,229,2.0,2.0,96,0.00,,,0.00,VWS V15.00,2015-05-30 05:43:00,
2015-05-30 01:48:00,60.0,58.9,30.22,SW,229,2.0,3.0,96,0.00,,,0.00,VWS V15.00,2015-05-30 05:48:00,
2015-05-30 01:53:00,60.0,58.9,30.21,SW,229,1.0,3.0,96,0.00,,,0.00,VWS V15.00,2015-05-30 05:53:00,
2015-05-30 01:58:00,60.0,58.9,30.21,SW,229,0.0,3.0,96,0.00,,,0.00,VWS V15.00,2015-05-30 05:58:00,
2015-05-30 02:03:00,60.0,58.9,30.21,SW,229,0.0,2.0,96,0.00,,,0.00,VWS V15.00,2015-05-30 06:03:00,
2015-05-30 02:08:00,60.0,58.9,30.21,SW,221,0.0,4.0,96,0.00,,,0.00,VWS V15.00,2015-05-30 06:08:00,
2015-05-30 02:13:00,60.0,58.9,30.21,SW,221,0.0,4.0,96,0.00,,,0.00,VWS V15.00,2015-05-30 06:13:00,
2015-05-30 02:18:00,60.0,58.9,30.21,SW,221,0.0,4.0,96,0.00,,,0.00,VWS V15.00,2015-05-30 06:18:00,
2015-05-30 02:23:00,60.0,58.9,30.21,SW,221,0.0,4.0,96,0.00,,,0.00,VWS V15.00,2015-05-30 06:23:00,
2015-05-30 02:28:00,60.0,58.9,30.21,SW,221,1.0,4.0,96,0.00,,,0.00,VWS V15.00,2015-05-30 06:28:00,
2015-05-30 02:33:00,60.0,58.9,30.21,SSW,203,4.0,4.0,96,0.00,,,0.00,VWS V15.00,2015-05-30 06:33:00,
2015-05-30 02:38:00,59.9,58.8,30.21,South,178,0.0,5.0,96,0.00,,,0.00,VWS V15.00,2015-05-30 06:38:00,
2015-05-30 02:43:00,59.9,58.8,30.21,SSW,195,0.0,5.0,96,0.00,,,0.00,VWS V15.00,2015-05-30 06:43:00,
2015-05-30 02:48:00,59.8,58.7,30.21,SW,227,4.0,5.0,96,0.00,,,0.00,VWS V15.00,2015-05-30 06:48:00,
2015-05-30 02:53:00,59.7,58.6,30.20,WSW,250,1.0,5.0,96,0.00,,,0.00,VWS V15.00,2015-05-30 06:53:00,
2015-05-30 02:57:00,59.5,58.4,30.21,WSW,257,0.0,5.0,96,0.00,,,0.00,VWS V15.00,2015-05-30 06:57:00,
2015-05-30 03:02:00,59.4,58.3,30.20,SW,221,0.0,3.0,96,0.00,,,0.00,VWS V15.00,2015-05-30 07:02:00,
2015-05-30 03:07:00,59.3,58.2,30.20,SW,217,2.0,4.0,96,0.00,,,0.00,VWS V15.00,2015-05-30 07:07:00,
2015-05-30 03:12:00,59.3,58.2,30.20,WSW,246,0.0,4.0,96,0.00,,,0.00,VWS V15.00,2015-05-30 07:12:00,
2015-05-30 03:17:00,59.2,58.1,30.20,WSW,243,0.0,5.0,96,0.00,,,0.00,VWS V15.00,2015-05-30 07:17:00,
2015-05-30 03:22:00,59.2,58.1,30.20,South,188,0.0,5.0,96,0.00,,,0.00,VWS V15.00,2015-05-30 07:22:00,
2015-05-30 03:27:00,59.2,58.1,30.20,SSW,192,0.0,5.0,96,0.00,,,0.00,VWS V15.00,2015-05-30 07:27:00,
2015-05-30 03:32:00,59.2,58.1,30.20,SSW,196,2.0,3.0,96,0.00,,,0.00,VWS V15.00,2015-05-30 07:32:00,
2015-05-30 03:37:00,59.2,58.1,30.21,WSW,246,4.0,5.0,96,0.00,,,0.00,VWS V15.00,2015-05-30 07:37:00,
2015-05-30 03:42:00,59.3,58.2,30.21,SSW,206,2.0,5.0,96,0.00,,,0.00,VWS V15.00,2015-05-30 07:42:00,
2015-05-30 03:47:00,59.3,58.2,30.20,SSW,205,1.0,5.0,96,0.00,,,0.00,VWS V15.00,2015-05-30 07:47:00,
2015-05-30 03:52:00,59.3,58.2,30.21,SW,235,0.0,6.0,96,0.00,,,0.00,VWS V15.00,2015-05-30 07:52:00,
2015-05-30 03:57:00,59.3,58.2,30.21,SW,215,3.0,6.0,96,0.00,,,0.00,VWS V15.00,2015-05-30 07:57:00,
2015-05-30 04:02:00,59.2,58.1,30.21,South,169,0.0,3.0,96,0.00,,,0.00,VWS V15.00,2015-05-30 08:02:00,
2015-05-30 04:07:00,59.2,58.1,30.21,South,174,2.0,4.0,96,0.00,,,0.00,VWS V15.00,2015-05-30 08:07:00,
2015-05-30 04:12:00,59.3,58.5,30.20,SW,228,0.0,4.0,97,0.00,,,0.00,VWS V15.00,2015-05-30 08:12:00,
2015-05-30 04:17:00,59.3,58.5,30.20,SSW,213,0.0,4.0,97,0.00,,,0.00,VWS V15.00,2015-05-30 08:17:00,
2015-05-30 04:22:00,59.4,58.5,30.20,SSW,213,1.0,4.0,97,0.00,,,0.00,VWS V15.00,2015-05-30 08:22:00,
2015-05-30 04:27:00,59.5,58.7,30.21,WSW,257,0.0,7.0,97,0.00,,,0.00,VWS V15.00,2015-05-30 08:27:00,
2015-05-30 04:32:00,59.5,58.7,30.20,SSW,194,0.0,4.0,97,0.00,,,0.00,VWS V15.00,2015-05-30 08:32:00,
2015-05-30 04:37:00,59.6,58.8,30.20,South,182,0.0,6.0,97,0.00,,,0.00,VWS V15.00,2015-05-30 08:37:00,
2015-05-30 04:42:00,59.6,58.8,30.21,SSW,211,1.0,6.0,97,0.00,,,0.00,VWS V15.00,2015-05-30 08:42:00,
2015-05-30 04:47:00,59.7,58.8,30.20,SW,217,0.0,6.0,97,0.00,,,0.00,VWS V15.00,2015-05-30 08:47:00,
2015-05-30 04:52:00,59.7,58.8,30.20,SSW,213,4.0,6.0,97,0.00,,,0.00,VWS V15.00,2015-05-30 08:52:00,
2015-05-30 04:57:00,59.8,59.0,30.20,WSW,247,2.0,6.0,97,0.00,,,0.00,VWS V15.00,2015-05-30 08:57:00,
2015-05-30 05:02:00,59.8,59.0,30.20,West,261,3.0,4.0,97,0.00,,,0.00,VWS V15.00,2015-05-30 09:02:00,
2015-05-30 05:07:00,59.8,59.0,30.20,WSW,240,0.0,4.0,97,0.00,,,0.00,VWS V15.00,2015-05-30 09:07:00,
2015-05-30 05:12:00,59.9,59.0,30.20,SW,218,0.0,6.0,97,0.00,,,0.00,VWS V15.00,2015-05-30 09:12:00,
2015-05-30 05:17:00,59.9,59.0,30.21,SSW,213,1.0,6.0,97,0.00,,,0.00,VWS V15.00,2015-05-30 09:17:00,
2015-05-30 05:22:00,59.9,59.0,30.21,SSW,213,1.0,8.0,97,0.00,,,0.00,VWS V15.00,2015-05-30 09:22:00,
2015-05-30 05:27:00,60.0,59.2,30.22,SW,224,0.0,8.0,97,0.00,,,0.00,VWS V15.00,2015-05-30 09:27:00,
2015-05-30 05:32:00,60.0,59.2,30.22,SSW,209,1.0,5.0,97,0.00,,,0.00,VWS V15.00,2015-05-30 09:32:00,
2015-05-30 05:37:00,60.0,59.2,30.22,SSW,210,1.0,5.0,97,0.00,,,0.00,VWS V15.00,2015-05-30 09:37:00,
2015-05-30 05:42:00,60.0,59.2,30.22,SW,228,0.0,6.0,97,0.00,,,0.00,VWS V15.00,2015-05-30 09:42:00,
2015-05-30 05:47:00,60.0,59.2,30.22,SW,229,1.0,7.0,97,0.00,,,0.00,VWS V15.00,2015-05-30 09:47:00,
2015-05-30 05:52:00,59.9,59.0,30.22,SSW,201,3.0,7.0,97,0.00,,,0.00,VWS V15.00,2015-05-30 09:52:00,
2015-05-30 05:57:00,59.8,59.0,30.23,South,188,7.0,9.0,97,0.00,,,0.00,VWS V15.00,2015-05-30 09:57:00,
2015-05-30 06:02:00,59.7,58.8,30.23,SSE,159,3.0,6.0,97,0.00,,,0.00,VWS V15.00,2015-05-30 10:02:00,
2015-05-30 06:07:00,59.6,58.8,30.23,SW,222,0.0,6.0,97,0.00,,,0.00,VWS V15.00,2015-05-30 10:07:00,
2015-05-30 06:12:00,59.5,58.7,30.23,SW,235,2.0,8.0,97,0.00,,,0.00,VWS V15.00,2015-05-30 10:12:00,
2015-05-30 06:17:00,59.5,58.7,30.22,SSW,205,1.0,8.0,97,0.00,,,0.00,VWS V15.00,2015-05-30 10:17:00,
2015-05-30 06:22:00,59.4,58.5,30.23,SW,232,1.0,8.0,97,0.00,,,0.00,VWS V15.00,2015-05-30 10:22:00,
2015-05-30 06:27:00,59.4,58.5,30.23,WSW,243,0.0,8.0,97,0.00,,,0.00,VWS V15.00,2015-05-30 10:27:00,
2015-05-30 06:32:00,59.4,58.5,30.23,WSW,243,3.0,6.0,97,0.00,,,0.00,VWS V15.00,2015-05-30 10:32:00,
2015-05-30 06:37:00,59.5,58.7,30.23,SW,215,1.0,6.0,97,0.00,,,0.00,VWS V15.00,2015-05-30 10:37:00,
2015-05-30 06:42:00,59.6,58.8,30.23,SSW,198,0.0,6.0,97,0.00,,,0.00,VWS V15.00,2015-05-30 10:42:00,
2015-05-30 06:47:00,59.6,58.8,30.23,WSW,241,0.0,8.0,97,0.00,,,0.00,VWS V15.00,2015-05-30 10:47:00,
2015-05-30 06:52:00,59.6,58.8,30.23,WSW,243,3.0,8.0,97,0.00,,,0.00,VWS V15.00,2015-05-30 10:52:00,
2015-05-30 06:57:00,59.6,58.8,30.24,WSW,240,6.0,8.0,97,0.00,,,0.00,VWS V15.00,2015-05-30 10:57:00,
2015-05-30 07:02:00,59.6,58.8,30.23,WSW,246,1.0,7.0,97,0.00,,,0.00,VWS V15.00,2015-05-30 11:02:00,
2015-05-30 07:07:00,59.6,58.8,30.24,SSW,211,6.0,7.0,97,0.00,,,0.00,VWS V15.00,2015-05-30 11:07:00,
2015-05-30 07:12:00,59.6,58.8,30.24,SSW,209,0.0,7.0,97,0.00,,,0.00,VWS V15.00,2015-05-30 11:12:00,
2015-05-30 07:17:00,59.7,58.8,30.24,WSW,246,0.0,7.0,97,0.00,,,0.00,VWS V15.00,2015-05-30 11:17:00,
2015-05-30 07:22:00,59.8,59.0,30.24,SW,226,2.0,7.0,97,0.00,,,0.00,VWS V15.00,2015-05-30 11:22:00,
2015-05-30 07:27:00,59.8,59.0,30.24,SW,219,6.0,7.0,97,0.00,,,0.00,VWS V15.00,2015-05-30 11:27:00,
2015-05-30 07:32:00,59.8,59.0,30.23,West,261,4.0,4.0,97,0.00,,,0.00,VWS V15.00,2015-05-30 11:32:00,